メインページ
METAR-TAF:

METAR-TAF

空港 :

防府北基地

防府, 日本

緯度: 34-02N, 経度: 131-33E, 海抜: 2m

現時点の気象観測

当レポートは6時間26分前の03:06(UTC)に作成
西の風 9kt
気温 10°C
湿度 46%
気圧 1025 hPa
視程10km以上
高度3000ftの雲はほとんどない
高度4000ftの千切れ雲あり

METAR: RJOF 130306Z 27009KT 9999 FEW030 BKN040 10/M01 Q1025 RMK 1CU030 5CU040 A3028

時間: 18:32 (09:32 UTC)


TAF: 見つかりません

4,000以上の空港の気象観測と天気予報(METAR報とTAF報)

利用可能な観測所は地図上に黄色い丸と赤い丸で示す。

丸の上にカーソルを重ねると観測所名を参照できる。

次にクリックすると気象観測と天気予報を参照できる。

マップの切り替え:黒色「×」印の緑ボタンをクリックして拡大、「-」印の緑ボタンをクリックして縮小、緑色の三角印をクリックして隣りの地図に切り替え


METAR-TAF: